• Join FlightAware (Why Join?)
  • Login
  • US Flag 
09:15AM EST


 

Airport Tracker/Info


-or-


 

Live Flight TrackerFlight Track Log ✈ USC105 ✈ 15-Apr-2013 ✈ KLCK - KBKL

Flight Track Log - Related Links

Times and Time Zones

All times are in EDT time to prevent confusion due to time zone crossing. See the USC105 flight status page for this flight to view local times or setup timezone preferences in your user account.

Time Position Orientation Groundspeed Altitude Reporting Facility
EDT Latitude Longitude Course Direction KTS MPH feet Rate Location/Type
10:03PM 39.8194 -82.9247 24° Northeast 118 136 900  Level Indianapolis Center
10:04PM 39.8544 -82.9042 24° Northeast 136 157 2,000 1,020 Climbing Indianapolis Center
10:05PM 39.8850 -82.9081 354° North 145 167 2,800 960 Climbing Indianapolis Center
10:05PM 39.8958 -82.9117 346° North 151 174 3,000 900 Climbing Indianapolis Center
10:06PM 39.9342 -82.8997 13° North 145 167 4,000 1,020 Climbing Indianapolis Center
10:07PM 39.9717 -82.8714 30° Northeast 152 175 5,100 960 Climbing Indianapolis Center
10:08PM 39.9969 -82.8508 32° Northeast 150 173 5,700 960 Climbing Indianapolis Center
10:09PM 40.0400 -82.8192 29° Northeast 145 167 7,000 600 Climbing Indianapolis Center
10:10PM 40.0731 -82.7928 31° Northeast 164 189 7,000  Level Indianapolis Center
10:11PM 40.1172 -82.7569 32° Northeast 184 212 7,000  Level Indianapolis Center
10:12PM 40.1636 -82.7247 28° Northeast 188 216 7,000  Level Indianapolis Center
10:13PM 40.2128 -82.6894 29° Northeast 199 229 7,000  Level Indianapolis Center
10:14PM 40.2608 -82.6547 29° Northeast 202 232 7,000  Level Indianapolis Center
10:15PM 40.3092 -82.6156 32° Northeast 203 234 7,000  Level Indianapolis Center
10:16PM 40.3600 -82.5817 27° Northeast 203 234 7,000  Level Indianapolis Center
10:17PM 40.4072 -82.5431 32° Northeast 199 229 7,000  Level Indianapolis Center
10:18PM 40.4550 -82.5069 30° Northeast 197 227 7,000 -60 Level Indianapolis Center
10:19PM 40.5022 -82.4675 32° Northeast 198 228 6,900  Descending Indianapolis Center
10:20PM 40.5575 -82.4256 30° Northeast 197 227 7,000  Climbing Indianapolis Center
10:21PM 40.6056 -82.3894 30° Northeast 196 226 7,000 -300 Level Indianapolis Center
10:22PM 40.6544 -82.3522 30° Northeast 200 230 6,400 -720 Descending Indianapolis Center
10:23PM 40.7072 -82.3142 29° Northeast 212 244 5,600 -720 Descending Indianapolis Center
10:24PM 40.7631 -82.2697 31° Northeast 228 262 5,000 -300 Descending Indianapolis Center
10:25PM 40.8164 -82.2294 30° Northeast 222 255 5,000  Level Indianapolis Center
10:26PM 40.8692 -82.1886 30° Northeast 218 251 5,000  Level Indianapolis Center
10:27PM 40.9278 -82.1469 28° Northeast 218 251 5,000  Level Cleveland Center
10:28PM 40.9761 -82.1094 30° Northeast 218 251 5,000 -240 Level Cleveland Center
10:29PM 41.0250 -82.0583 38° Northeast 231 266 4,600 -540 Descending Cleveland Center
10:30PM 41.0569 -82.0039 52° Northeast 237 273 4,100 -600 Descending Cleveland Center
10:31PM 41.1014 -81.9469 44° Northeast 230 265 3,600 -600 Descending Cleveland Center
10:32PM 41.1519 -81.8931 39° Northeast 230 265 3,000 -300 Descending Cleveland Center
10:33PM 41.2028 -81.8333 41° Northeast 210 242 3,000  Level Cleveland Center
10:34PM 41.2469 -81.7844 40° Northeast 204 235 3,000  Level Cleveland Center
10:35PM 41.2994 -81.7578 21° North 206 237 3,000  Level Cleveland Center
10:36PM 41.3517 -81.7367 17° North 199 229 3,000 -300 Level Cleveland Center
10:37PM 41.4103 -81.7072 21° North 206 237 2,400 -540 Descending Cleveland Center
10:38PM 41.4586 -81.6719 29° Northeast 191 220 2,000 -300 Descending Cleveland Center
10:39PM 41.5006 -81.6478 23° Northeast 169 194 1,800 -360 Descending Cleveland Center
10:40PM 41.5317 -81.6539 352° North 134 154 1,300 -540 Descending Cleveland Center